createdAt,value
2018-04-14T00:02:13.922Z,91.60
2018-04-14T00:04:42.221Z,91.70
2018-04-14T00:07:11.021Z,91.80
2018-04-14T00:09:39.353Z,91.70
2018-04-14T00:12:07.720Z,91.80
2018-04-14T00:14:36.098Z,91.70
2018-04-14T00:17:04.411Z,91.70
2018-04-14T00:19:32.789Z,91.60
2018-04-14T00:22:01.889Z,91.30
2018-04-14T00:24:31.092Z,91.20
2018-04-14T00:26:59.404Z,91.20
2018-04-14T00:29:27.705Z,91.30
2018-04-14T00:31:56.150Z,91.40
2018-04-14T00:34:24.509Z,91.50
2018-04-14T00:36:52.904Z,91.20
2018-04-14T00:39:21.210Z,91.30
2018-04-14T00:41:49.658Z,91.20
2018-04-14T00:44:17.948Z,91.30
2018-04-14T00:46:47.069Z,91.60
2018-04-14T00:49:16.134Z,91.30
2018-04-14T00:51:44.420Z,91.30
2018-04-14T00:54:13.068Z,91.10
2018-04-14T00:56:41.363Z,91.20
2018-04-14T00:59:10.437Z,91.00
2018-04-14T01:01:38.854Z,91.10
2018-04-14T01:04:07.935Z,91.00
2018-04-14T01:06:37.010Z,91.40
2018-04-14T01:09:06.113Z,91.10
2018-04-14T01:11:34.578Z,91.00
2018-04-14T01:14:02.873Z,91.10
2018-04-14T01:16:31.173Z,91.10
2018-04-14T01:18:59.560Z,90.70
2018-04-14T01:21:27.880Z,90.60
2018-04-14T01:23:56.208Z,90.50
2018-04-14T01:26:25.263Z,90.90
2018-04-14T01:28:53.589Z,90.90
2018-04-14T01:31:21.989Z,91.10
2018-04-14T01:33:50.294Z,91.10
2018-04-14T01:36:18.613Z,91.10
2018-04-14T01:38:46.917Z,90.70
2018-04-14T01:41:15.416Z,90.80
2018-04-14T01:43:43.710Z,91.00
2018-04-14T01:46:12.009Z,91.00
2018-04-14T01:48:40.534Z,91.00
2018-04-14T01:51:08.846Z,90.70
2018-04-14T01:53:37.917Z,90.70
2018-04-14T01:56:06.548Z,90.60
2018-04-14T01:58:34.853Z,90.70
2018-04-14T02:01:03.154Z,90.70
2018-04-14T02:03:32.263Z,91.20
2018-04-14T02:06:00.586Z,90.90
2018-04-14T02:08:28.923Z,90.70
2018-04-14T02:10:58.009Z,90.60
2018-04-14T02:13:26.305Z,90.60
2018-04-14T02:15:54.645Z,90.60
2018-04-14T02:18:23.740Z,90.50
2018-04-14T02:20:52.029Z,90.50
2018-04-14T02:23:20.430Z,90.60
2018-04-14T02:25:48.761Z,90.70
2018-04-14T02:28:17.853Z,91.00
2018-04-14T02:30:46.155Z,91.00
2018-04-14T02:33:14.490Z,91.00
2018-04-14T02:35:43.577Z,90.70
2018-04-14T02:38:11.904Z,90.70
2018-04-14T02:40:41.005Z,90.80
2018-04-14T02:43:09.334Z,90.80
2018-04-14T02:45:38.469Z,90.60
2018-04-14T02:48:06.804Z,90.60
2018-04-14T02:50:35.105Z,90.50
2018-04-14T02:53:03.436Z,90.50
2018-04-14T02:55:31.770Z,90.80
2018-04-14T02:58:00.072Z,90.70
2018-04-14T03:00:29.168Z,90.50
2018-04-14T03:02:57.501Z,90.40
2018-04-14T03:05:26.564Z,90.80
2018-04-14T03:07:55.163Z,90.80
2018-04-14T03:10:23.500Z,90.90
2018-04-14T03:12:51.798Z,90.80
2018-04-14T03:15:20.122Z,91.00
2018-04-14T03:17:49.215Z,90.90
2018-04-14T03:20:17.517Z,90.90
2018-04-14T03:22:45.862Z,90.90
2018-04-14T03:25:14.176Z,91.20
2018-04-14T03:27:42.468Z,91.30
2018-04-14T03:30:10.800Z,90.90
2018-04-14T03:32:39.106Z,90.80
2018-04-14T03:35:08.149Z,90.90
2018-04-14T03:37:36.460Z,91.10
2018-04-14T03:40:04.748Z,91.50
2018-04-14T03:42:33.153Z,91.50
2018-04-14T03:45:01.483Z,91.50
2018-04-14T03:47:30.550Z,91.20
2018-04-14T03:49:58.989Z,91.10
2018-04-14T03:52:27.290Z,91.30
2018-04-14T03:54:55.669Z,91.20
2018-04-14T03:57:24.004Z,91.20
2018-04-14T03:59:53.073Z,91.40
2018-04-14T04:02:21.401Z,91.20
2018-04-14T04:04:49.700Z,91.80
2018-04-14T04:07:18.020Z,91.90
2018-04-14T04:09:46.348Z,92.00
2018-04-14T04:12:15.449Z,91.80
2018-04-14T04:14:43.759Z,91.80
2018-04-14T04:17:12.053Z,92.00
2018-04-14T04:19:52.353Z,92.00
2018-04-14T04:22:33.336Z,91.90
2018-04-14T04:25:17.864Z,91.90
2018-04-14T04:27:45.921Z,91.70
2018-04-14T04:30:14.014Z,91.90
2018-04-14T04:32:42.060Z,92.10
2018-04-14T04:35:11.884Z,92.30
2018-04-14T04:37:41.521Z,92.40
2018-04-14T04:40:09.621Z,92.30
2018-04-14T04:42:37.689Z,92.40
2018-04-14T04:45:05.790Z,92.30
2018-04-14T04:47:33.877Z,92.20
2018-04-14T04:50:01.937Z,92.30
2018-04-14T04:52:30.017Z,92.50
2018-04-14T04:54:58.840Z,92.70
2018-04-14T04:57:27.692Z,92.80
2018-04-14T04:59:55.753Z,92.70
2018-04-14T05:02:24.633Z,92.80
2018-04-14T05:04:52.717Z,92.80
2018-04-14T05:07:20.772Z,92.60
2018-04-14T05:09:48.861Z,92.60
2018-04-14T05:12:17.681Z,92.50
2018-04-14T05:14:45.769Z,92.50
2018-04-14T05:17:14.613Z,92.70
2018-04-14T05:19:42.705Z,92.60
2018-04-14T05:22:10.829Z,92.70
2018-04-14T05:24:38.930Z,92.60
2018-04-14T05:27:06.996Z,92.70
2018-04-14T05:29:35.090Z,92.70
2018-04-14T05:32:03.186Z,92.60
2018-04-14T05:34:31.241Z,92.80
2018-04-14T05:36:59.331Z,92.50
2018-04-14T05:39:27.473Z,92.80
2018-04-14T05:41:55.529Z,92.90
2018-04-14T05:44:24.391Z,93.20
2018-04-14T05:46:52.455Z,92.90
2018-04-14T05:49:21.311Z,92.90
2018-04-14T05:51:49.361Z,92.90
2018-04-14T05:54:18.220Z,92.80
2018-04-14T05:56:46.268Z,92.80
2018-04-14T05:59:15.125Z,92.70
2018-04-14T06:01:43.185Z,92.70
2018-04-14T06:04:12.299Z,93.00
2018-04-14T06:06:41.132Z,93.00
2018-04-14T06:09:10.884Z,93.00
2018-04-14T06:11:38.978Z,93.00
2018-04-14T06:14:07.121Z,92.90
2018-04-14T06:16:36.770Z,92.70
2018-04-14T06:19:05.647Z,92.70
2018-04-14T06:21:33.717Z,92.40
2018-04-14T06:24:01.810Z,92.60
2018-04-14T06:26:30.121Z,92.30
2018-04-14T06:28:58.896Z,92.40
2018-04-14T06:31:26.956Z,92.40
2018-04-14T06:33:55.037Z,92.00
2018-04-14T06:36:23.229Z,91.80
2018-04-14T06:38:51.280Z,91.70
2018-04-14T06:41:20.847Z,90.90
2018-04-14T06:43:48.966Z,90.90
2018-04-14T06:46:17.028Z,90.50
2018-04-14T06:48:45.872Z,91.90
2018-04-14T06:51:13.933Z,91.90
2018-04-14T06:53:42.760Z,89.60
2018-04-14T06:56:10.843Z,89.60
2018-04-14T06:58:39.663Z,89.10
2018-04-14T07:01:08.525Z,89.60
2018-04-14T07:03:36.613Z,89.60
2018-04-14T07:06:05.439Z,89.80
2018-04-14T07:08:33.546Z,89.80
2018-04-14T07:11:01.593Z,89.40
2018-04-14T07:13:29.664Z,88.90
2018-04-14T07:15:58.519Z,88.60
2018-04-14T07:18:26.570Z,88.60
2018-04-14T07:20:54.800Z,89.20
2018-04-14T07:23:22.858Z,88.00
2018-04-14T07:25:50.917Z,87.40
2018-04-14T07:28:19.004Z,87.60
2018-04-14T07:30:47.061Z,87.00
2018-04-14T07:33:15.909Z,89.30
2018-04-14T07:35:43.992Z,89.30
2018-04-14T07:38:13.127Z,87.90
2018-04-14T07:40:41.221Z,87.90
2018-04-14T07:43:09.283Z,87.80
2018-04-14T07:45:38.878Z,86.70
2018-04-14T07:48:06.985Z,86.70
2018-04-14T07:50:35.245Z,86.20
2018-04-14T07:53:03.299Z,86.50
2018-04-14T07:55:31.360Z,86.00
2018-04-14T07:57:59.446Z,86.40
2018-04-14T08:00:27.533Z,86.00
2018-04-14T08:02:55.581Z,85.70
2018-04-14T08:05:23.673Z,86.60
2018-04-14T08:07:51.725Z,85.10
2018-04-14T08:10:19.813Z,83.90
2018-04-14T08:12:47.867Z,84.80
2018-04-14T08:15:15.977Z,86.40
2018-04-14T08:17:44.846Z,85.90
2018-04-14T08:20:12.894Z,85.80
2018-04-14T08:22:40.962Z,85.30
2018-04-14T08:25:09.057Z,83.20
2018-04-14T08:27:37.109Z,82.90
2018-04-14T08:30:05.202Z,82.00
2018-04-14T08:32:33.364Z,81.10
2018-04-14T08:35:01.617Z,79.70
2018-04-14T08:37:29.732Z,79.70
2018-04-14T08:39:58.498Z,79.00
2018-04-14T08:42:27.344Z,81.10
2018-04-14T08:44:55.396Z,81.10
2018-04-14T08:47:24.270Z,80.70
2018-04-14T08:49:52.946Z,80.60
2018-04-14T08:52:21.173Z,81.10
2018-04-14T08:54:49.237Z,81.60
2018-04-14T08:57:17.284Z,81.30
2018-04-14T08:59:45.365Z,81.60
2018-04-14T09:02:13.444Z,79.90
2018-04-14T09:04:41.534Z,81.30
2018-04-14T09:07:09.586Z,79.30
2018-04-14T09:09:37.673Z,77.40
2018-04-14T09:12:05.778Z,76.00
2018-04-14T09:14:33.830Z,77.80
2018-04-14T09:17:01.909Z,77.70
2018-04-14T09:19:30.209Z,77.20
2018-04-14T09:21:58.530Z,76.70
2018-04-14T09:24:26.847Z,76.90
2018-04-14T09:26:55.141Z,77.70
2018-04-14T09:29:29.484Z,76.80
2018-04-14T09:31:58.536Z,74.50
2018-04-14T09:34:27.626Z,71.40
2018-04-14T09:36:55.958Z,71.40
2018-04-14T09:39:25.029Z,74.20
2018-04-14T09:41:53.366Z,74.20
2018-04-14T09:44:21.702Z,73.70
2018-04-14T09:46:51.724Z,75.10
2018-04-14T09:49:20.826Z,73.70
2018-04-14T09:51:49.121Z,73.60
2018-04-14T09:54:17.720Z,74.30
2018-04-14T09:56:46.019Z,71.10
2018-04-14T09:59:14.316Z,70.50
2018-04-14T10:02:01.436Z,64.80
2018-04-14T10:04:29.796Z,64.60
2018-04-14T10:06:59.121Z,66.60
2018-04-14T10:12:01.641Z,67.00
2018-04-14T10:14:30.934Z,68.70
2018-04-14T10:16:59.266Z,69.60
2018-04-14T10:19:27.587Z,69.70
2018-04-14T10:21:55.936Z,69.60
2018-04-14T10:24:25.015Z,71.30
2018-04-14T10:26:53.372Z,71.20
2018-04-14T10:29:21.773Z,70.80
2018-04-14T10:31:50.376Z,70.50
2018-04-14T10:34:18.679Z,71.80
2018-04-14T10:36:46.985Z,70.70
2018-04-14T10:39:15.326Z,70.10
2018-04-14T10:41:43.638Z,70.30
2018-04-14T10:44:11.977Z,69.80
2018-04-14T10:46:47.191Z,70.30
2018-04-14T10:49:16.306Z,70.00
2018-04-14T10:51:44.810Z,69.80
2018-04-14T10:54:13.622Z,69.70
2018-04-14T10:57:03.338Z,69.40
2018-04-14T10:59:32.462Z,67.30
2018-04-14T11:02:00.811Z,67.20
2018-04-14T11:04:42.612Z,64.70
2018-04-14T11:07:12.703Z,64.50
2018-04-14T11:09:42.320Z,64.40
2018-04-14T11:12:10.770Z,62.40
2018-04-14T11:14:40.015Z,62.20
2018-04-14T11:17:13.038Z,61.40
2018-04-14T11:19:41.638Z,62.70
2018-04-14T11:22:09.973Z,63.50
2018-04-14T11:24:38.286Z,62.20
2018-04-14T11:27:06.639Z,62.90
2018-04-14T11:29:34.955Z,63.30
2018-04-14T11:32:03.433Z,62.90
2018-04-14T11:34:31.914Z,61.70
2018-04-14T11:37:00.323Z,61.50
2018-04-14T11:39:28.639Z,61.30
2018-04-14T11:41:57.010Z,60.80
2018-04-14T11:44:25.355Z,62.60
2018-04-14T11:46:54.459Z,62.30
2018-04-14T11:49:22.791Z,63.00
2018-04-14T11:51:51.143Z,60.90
2018-04-14T11:54:19.441Z,59.00
2018-04-14T11:56:47.753Z,58.50
2018-04-14T11:59:16.160Z,59.30
2018-04-14T12:01:50.704Z,59.50
2018-04-14T12:04:19.278Z,62.50
2018-04-14T12:06:47.789Z,61.30
2018-04-14T12:09:16.196Z,61.60
2018-04-14T12:11:45.462Z,60.30
2018-04-14T12:14:13.802Z,61.10
2018-04-14T12:16:44.896Z,59.70
2018-04-14T12:19:13.244Z,59.60
2018-04-14T12:21:41.553Z,59.70
2018-04-14T12:24:09.879Z,59.60
2018-04-14T12:26:38.991Z,57.80
2018-04-14T12:29:07.311Z,57.70
2018-04-14T12:31:36.639Z,57.70
2018-04-14T12:34:04.946Z,57.50
2018-04-14T12:36:33.370Z,57.60
2018-04-14T12:39:01.691Z,57.20
2018-04-14T12:41:30.798Z,56.00
2018-04-14T12:43:59.903Z,56.10
2018-04-14T12:46:28.384Z,56.00
2018-04-14T12:48:56.697Z,55.30
2018-04-14T12:51:25.014Z,56.50
2018-04-14T12:53:54.131Z,56.30
2018-04-14T12:56:23.204Z,56.90
2018-04-14T12:58:51.905Z,56.90
2018-04-14T13:01:20.972Z,58.50
2018-04-14T13:03:49.292Z,58.50
2018-04-14T13:06:17.642Z,58.90
2018-04-14T13:08:45.943Z,59.00
2018-04-14T13:11:14.623Z,59.60
2018-04-14T13:13:43.710Z,61.00
2018-04-14T13:16:12.802Z,63.00
2018-04-14T13:18:41.912Z,65.90
2018-04-14T13:21:10.232Z,65.90
2018-04-14T13:23:41.503Z,70.20
2018-04-14T13:26:09.860Z,74.20
2018-04-14T13:28:40.218Z,73.30
2018-04-14T13:31:10.337Z,83.50
2018-04-14T13:33:39.418Z,88.20
2018-04-14T13:36:08.707Z,88.10
2018-04-14T13:38:37.278Z,91.00
2018-04-14T13:41:06.613Z,91.20
2018-04-14T13:43:41.241Z,92.00
2018-04-14T13:46:09.761Z,92.40
2018-04-14T13:48:38.193Z,92.60
2018-04-14T13:51:06.569Z,93.20
2018-04-14T13:53:34.881Z,92.00
2018-04-14T13:56:07.234Z,92.50
2018-04-14T13:58:36.315Z,93.10
2018-04-14T14:01:04.632Z,93.00
2018-04-14T14:03:34.911Z,92.80
2018-04-14T14:06:03.236Z,92.70
2018-04-14T14:08:31.603Z,92.80
2018-04-14T14:10:59.933Z,92.30
2018-04-14T14:13:28.451Z,92.60
2018-04-14T14:15:59.532Z,93.20
2018-04-14T14:18:28.000Z,93.10
2018-04-14T14:20:56.317Z,92.10
2018-04-14T14:23:32.348Z,92.60
2018-04-14T14:26:00.655Z,92.60
2018-04-14T14:28:28.957Z,91.30
2018-04-14T14:30:58.181Z,90.30
2018-04-14T14:33:26.500Z,90.30
2018-04-14T14:35:54.826Z,85.90
2018-04-14T14:38:24.040Z,90.00
2018-04-14T14:40:57.344Z,90.00
2018-04-14T14:43:27.605Z,90.80
2018-04-14T14:45:56.715Z,88.50
2018-04-14T14:48:25.064Z,88.50
2018-04-14T14:51:00.349Z,88.20
2018-04-14T14:53:30.467Z,88.30
2018-04-14T14:55:59.598Z,85.50
2018-04-14T14:58:28.110Z,84.80
2018-04-14T15:00:56.422Z,83.90
2018-04-14T15:03:26.475Z,82.20
2018-04-14T15:05:58.582Z,82.20
2018-04-14T15:08:26.886Z,81.40
2018-04-14T15:11:02.686Z,83.70
2018-04-14T15:13:30.987Z,83.60
2018-04-14T15:15:59.308Z,83.60
2018-04-14T15:18:27.671Z,81.80
2018-04-14T15:20:56.795Z,83.90
2018-04-14T15:23:25.159Z,83.70
2018-04-14T15:25:54.543Z,82.50
2018-04-14T15:28:22.863Z,82.50
2018-04-14T15:30:51.184Z,82.20
2018-04-14T15:33:19.532Z,78.60
2018-04-14T15:35:47.839Z,71.60
2018-04-14T15:38:16.139Z,66.10
2018-04-14T15:40:45.255Z,63.40
2018-04-14T15:43:13.557Z,63.30
2018-04-14T15:45:41.871Z,60.40
2018-04-14T15:48:16.091Z,58.30
2018-04-14T15:50:44.668Z,58.50
2018-04-14T15:53:14.538Z,57.70
2018-04-14T15:55:43.172Z,57.70
2018-04-14T15:58:12.687Z,57.80
2018-04-14T16:00:41.388Z,57.00
2018-04-14T16:03:09.947Z,57.10
2018-04-14T16:05:38.567Z,59.00
2018-04-14T16:08:07.210Z,59.30
2018-04-14T16:10:35.909Z,59.50
2018-04-14T16:13:06.001Z,58.20
2018-04-14T16:15:34.851Z,58.20
2018-04-14T16:18:04.290Z,57.70
2018-04-14T16:20:33.259Z,57.90
2018-04-14T16:23:02.035Z,57.50
2018-04-14T16:25:30.629Z,57.40
2018-04-14T16:28:01.073Z,55.90
2018-04-14T16:30:29.519Z,55.80
2018-04-14T16:32:58.087Z,58.70
2018-04-14T16:35:27.400Z,64.00
2018-04-14T16:37:57.837Z,63.40
2018-04-14T16:40:26.559Z,63.40
2018-04-14T16:42:55.070Z,62.20
2018-04-14T16:45:23.717Z,65.80
2018-04-14T16:47:52.181Z,67.40
2018-04-14T16:50:20.781Z,67.70
2018-04-14T16:52:49.278Z,69.00
2018-04-14T16:55:17.627Z,70.10
2018-04-14T16:57:46.110Z,70.20
2018-04-14T17:00:14.744Z,70.30
2018-04-14T17:02:45.237Z,70.60
2018-04-14T17:05:13.980Z,72.00
2018-04-14T17:07:43.427Z,73.30
2018-04-14T17:10:12.034Z,74.90
2018-04-14T17:12:42.507Z,77.00
2018-04-14T17:15:12.879Z,79.90
2018-04-14T17:17:41.356Z,79.80
2018-04-14T17:20:09.956Z,80.80
2018-04-14T17:22:38.627Z,81.70
2018-04-14T17:25:08.022Z,82.50
2018-04-14T17:27:37.785Z,84.30
2018-04-14T17:30:06.795Z,84.30
2018-04-14T17:32:35.478Z,84.60
2018-04-14T17:35:04.168Z,85.50
2018-04-14T17:37:32.842Z,86.40
2018-04-14T17:40:01.675Z,87.30
2018-04-14T17:42:30.322Z,87.70
2018-04-14T17:44:58.920Z,87.60
2018-04-14T17:47:28.343Z,88.70
2018-04-14T17:49:56.686Z,88.70
2018-04-14T17:52:25.799Z,90.20
2018-04-14T17:54:54.112Z,90.20
2018-04-14T17:57:22.442Z,90.30
2018-04-14T17:59:50.791Z,90.10
2018-04-14T18:02:19.113Z,90.50
2018-04-14T18:04:47.460Z,90.60
2018-04-14T18:07:16.573Z,90.50
2018-04-14T18:09:44.914Z,90.50
2018-04-14T18:12:13.243Z,90.50
2018-04-14T18:14:41.575Z,90.50
2018-04-14T18:17:11.288Z,90.90
2018-04-14T18:19:40.486Z,90.80
2018-04-14T18:22:09.582Z,91.40
2018-04-14T18:24:38.687Z,91.40
2018-04-14T18:27:07.006Z,91.30
2018-04-14T18:29:35.325Z,91.00
2018-04-14T18:32:03.683Z,90.90
2018-04-14T18:34:32.039Z,91.20
2018-04-14T18:37:00.364Z,90.90
2018-04-14T18:39:28.717Z,90.60
2018-04-14T18:41:57.026Z,90.50
2018-04-14T18:44:25.378Z,90.80
2018-04-14T18:46:53.700Z,90.70
2018-04-14T18:49:22.085Z,90.90
2018-04-14T18:51:50.485Z,91.00
2018-04-14T18:54:18.794Z,91.60
2018-04-14T18:56:47.268Z,91.40
2018-04-14T18:59:15.638Z,91.70
2018-04-14T19:01:43.976Z,91.80
2018-04-14T19:04:12.290Z,91.70
2018-04-14T19:06:40.600Z,91.50
2018-04-14T19:09:09.714Z,91.50
2018-04-14T19:11:38.787Z,91.50
2018-04-14T19:14:07.139Z,91.50
2018-04-14T19:16:35.488Z,91.60
2018-04-14T19:19:04.739Z,91.60
2018-04-14T19:21:33.103Z,91.60
2018-04-14T19:24:01.449Z,91.20
2018-04-14T19:26:29.795Z,91.00
2018-04-14T19:28:58.902Z,91.50
2018-04-14T19:31:27.215Z,91.40
2018-04-14T19:33:55.554Z,91.90
2018-04-14T19:36:23.918Z,91.50
2018-04-14T19:38:53.033Z,91.80
2018-04-14T19:41:21.342Z,91.50
2018-04-14T19:43:50.010Z,91.30
2018-04-14T19:46:18.318Z,91.20
2018-04-14T19:48:47.565Z,91.30
2018-04-14T19:51:16.661Z,91.20
2018-04-14T19:53:45.746Z,91.60
2018-04-14T19:56:14.937Z,91.50
2018-04-14T19:58:43.282Z,91.50
2018-04-14T20:01:11.589Z,90.90
2018-04-14T20:03:40.703Z,91.20
2018-04-14T20:06:09.383Z,91.10
2018-04-14T20:08:38.489Z,91.30
2018-04-14T20:11:07.595Z,91.20
2018-04-14T20:13:35.951Z,91.20
2018-04-14T20:16:16.130Z,91.10
2018-04-14T20:18:51.266Z,91.00
2018-04-14T20:21:25.726Z,91.30
2018-04-14T20:23:54.038Z,91.20
2018-04-14T20:26:45.087Z,91.70
2018-04-14T20:29:19.507Z,91.40
2018-04-14T20:31:52.761Z,91.20
2018-04-14T20:34:26.594Z,91.10
2018-04-14T20:36:57.999Z,91.00
2018-04-14T20:39:26.342Z,91.30
2018-04-14T20:42:13.212Z,91.40
2018-04-14T20:44:43.266Z,91.60
2018-04-14T20:47:12.432Z,91.80
2018-04-14T20:49:41.523Z,91.70
2018-04-14T20:52:10.608Z,91.70
2018-04-14T20:54:38.954Z,91.70
2018-04-14T20:57:07.305Z,91.70
2018-04-14T20:59:35.638Z,91.70
2018-04-14T21:02:03.953Z,91.50
2018-04-14T21:04:32.307Z,91.20
2018-04-14T21:07:01.373Z,91.00
2018-04-14T21:09:30.643Z,90.90
2018-04-14T21:12:03.212Z,90.90
2018-04-14T21:14:32.594Z,90.90
2018-04-14T21:17:11.069Z,91.20
2018-04-14T21:19:39.621Z,91.10
2018-04-14T21:22:08.951Z,91.10
2018-04-14T21:24:37.288Z,91.60
2018-04-14T21:27:05.626Z,91.80
2018-04-14T21:29:33.966Z,91.40
2018-04-14T21:32:02.318Z,91.70
2018-04-14T21:34:30.630Z,91.40
2018-04-14T21:36:59.904Z,91.10
2018-04-14T21:39:28.211Z,91.40
2018-04-14T21:41:56.522Z,92.20
2018-04-14T21:44:25.699Z,91.80
2018-04-14T21:46:54.005Z,91.80
2018-04-14T21:49:23.116Z,92.10
2018-04-14T21:51:51.458Z,91.80
2018-04-14T21:54:19.782Z,92.60
2018-04-14T21:56:48.895Z,91.70
2018-04-14T21:59:17.211Z,91.70
2018-04-14T22:01:45.556Z,91.20
2018-04-14T22:04:13.868Z,91.10
2018-04-14T22:06:42.219Z,90.60
2018-04-14T22:09:10.526Z,90.90
2018-04-14T22:11:38.893Z,91.50
2018-04-14T22:14:11.242Z,91.70
2018-04-14T22:16:39.564Z,91.70
2018-04-14T22:19:08.670Z,90.90
2018-04-14T22:21:37.804Z,90.90
2018-04-14T22:24:06.127Z,90.80
2018-04-14T22:26:35.247Z,91.90
2018-04-14T22:29:03.570Z,91.90
2018-04-14T22:31:31.921Z,91.00
2018-04-14T22:34:00.262Z,91.00
2018-04-14T22:36:29.344Z,90.90
2018-04-14T22:38:57.663Z,90.80
2018-04-14T22:41:26.012Z,91.20
2018-04-14T22:44:01.733Z,91.40
2018-04-14T22:46:32.069Z,91.40
2018-04-14T22:49:00.414Z,91.20
2018-04-14T22:51:28.722Z,90.60
2018-04-14T22:53:57.091Z,90.70
2018-04-14T22:56:25.443Z,90.50
2018-04-14T22:58:53.765Z,90.80
2018-04-14T23:01:22.099Z,91.30
2018-04-14T23:03:50.488Z,91.50
2018-04-14T23:06:18.804Z,91.50
2018-04-14T23:08:47.163Z,91.20
2018-04-14T23:11:15.503Z,91.20
2018-04-14T23:13:43.832Z,90.40
2018-04-14T23:16:12.188Z,90.00
2018-04-14T23:18:40.602Z,90.00
2018-04-14T23:21:09.671Z,91.20
2018-04-14T23:23:38.016Z,91.20
2018-04-14T23:26:06.316Z,91.40
2018-04-14T23:28:34.663Z,92.10
2018-04-14T23:31:03.317Z,91.70
2018-04-14T23:33:32.387Z,91.70
2018-04-14T23:36:00.702Z,91.70
2018-04-14T23:38:29.803Z,91.50
2018-04-14T23:40:58.147Z,91.50
2018-04-14T23:43:26.495Z,91.70
2018-04-14T23:45:54.832Z,91.20
2018-04-14T23:48:23.925Z,91.00
2018-04-14T23:50:52.221Z,91.00
2018-04-14T23:53:21.491Z,92.00
2018-04-14T23:55:50.564Z,92.10
2018-04-14T23:58:18.866Z,92.10
